»·PEaware :: N911AT KSNA-KBUR

N911AT :: KSNA-KBUR

FLIGHT INFORMATION

Flight Status: Arrived
Operator: Privately registered:
United States
More flights under this callsign
Pilot: Daniel P. (33678)
Aircraft: CESSNA 172 SKYHAWK
(C172)
More flights by this aircraft type
Origin: KSNA John Wayne-Orange Co
United States
Destination: KBUR Bob Hope-Burbank
United States
More flights between these airports :: More routes between these airports
Route: SLI V23 POPPR SMO125 SMO SMO311 SILEX
File this flight plan on PilotEdge
Remarks:
Altitude:
(Current/Filed)
4,000ft
Speed:
(Current/Filed)
110kts
Departed: 22-Feb-21 04:42 PM
Arrived: 22-Feb-21 05:23 PM
Distance/Time
Traveled:
40nm/0:41
Distance/Time
To Go:
Arrived

Flight Plot

Page will automatically refresh every two minutes.


Map Options




Map Legend


Flown Route
Filed Route
Departure Airport
Arrival Airport
Navaid (VOR, NDB)
Fix

Horizontal Profiles

Position Reports

Time Latitude Longitude Heading Altitude Ground
Speed
22-Feb-21 16:22 33.676080 -117.870909 219 60ft 0kts
22-Feb-21 16:23 33.676080 -117.870909 219 60ft 0kts
22-Feb-21 16:24 33.676080 -117.870909 219 60ft 0kts
22-Feb-21 16:25 33.676080 -117.870909 219 60ft 0kts
22-Feb-21 16:26 33.676080 -117.870909 219 60ft 0kts
22-Feb-21 16:27 33.676080 -117.870909 219 60ft 0kts
22-Feb-21 16:28 33.676080 -117.870909 219 60ft 0kts
22-Feb-21 16:29 33.676080 -117.870909 219 60ft 0kts
22-Feb-21 16:30 33.676080 -117.870909 219 60ft 0kts
22-Feb-21 16:31 33.676080 -117.870909 219 60ft 0kts
22-Feb-21 16:32 33.676080 -117.870909 219 60ft 0kts
22-Feb-21 16:33 33.676080 -117.870909 219 60ft 0kts
22-Feb-21 16:34 33.676080 -117.870909 219 60ft 0kts
22-Feb-21 16:35 33.676080 -117.870909 219 60ft 0kts
22-Feb-21 16:36 33.676080 -117.870909 219 60ft 0kts
22-Feb-21 16:37 33.676080 -117.870909 219 60ft 0kts
22-Feb-21 16:38 33.675781 -117.870634 122 60ft 8kts
22-Feb-21 16:39 33.678896 -117.868292 29 60ft 13kts
22-Feb-21 16:40 33.681251 -117.866559 117 60ft 0kts
22-Feb-21 16:40 33.681250 -117.866559 117 60ft 0kts
22-Feb-21 16:42 33.672897 -117.870511 207 271ft 76kts
22-Feb-21 16:43 33.655095 -117.883010 221 1259ft 72kts
22-Feb-21 16:44 33.640965 -117.902889 232 2054ft 86kts
22-Feb-21 16:44 33.635434 -117.924115 306 2706ft 92kts
22-Feb-21 16:46 33.660423 -117.945661 320 3579ft 95kts
22-Feb-21 16:46 33.678872 -117.961878 319 4053ft 107kts
22-Feb-21 16:47 33.706289 -117.986521 320 4046ft 131kts
22-Feb-21 16:49 33.740683 -118.017599 321 3974ft 134kts
22-Feb-21 16:49 33.765427 -118.038518 322 3931ft 122kts
22-Feb-21 16:50 33.784717 -118.065056 283 4012ft 112kts
22-Feb-21 16:51 33.794004 -118.102273 285 4048ft 122kts
22-Feb-21 16:52 33.803373 -118.139994 285 4055ft 112kts
22-Feb-21 16:53 33.813244 -118.175585 292 4050ft 111kts
22-Feb-21 16:54 33.823286 -118.210868 285 4034ft 111kts
22-Feb-21 16:55 33.832425 -118.246604 286 4023ft 112kts
22-Feb-21 16:56 33.841837 -118.282346 294 4013ft 112kts
22-Feb-21 16:57 33.865952 -118.306578 320 4041ft 113kts
22-Feb-21 16:58 33.890020 -118.331310 316 4048ft 113kts
22-Feb-21 16:59 33.914522 -118.356073 323 4030ft 115kts
22-Feb-21 17:00 33.937543 -118.382654 316 4028ft 115kts
22-Feb-21 17:01 33.962590 -118.407160 317 4019ft 116kts
22-Feb-21 17:02 33.987224 -118.432588 315 4018ft 117kts
22-Feb-21 17:03 34.012806 -118.457011 322 4019ft 118kts
22-Feb-21 17:04 34.039763 -118.479856 317 4024ft 118kts
22-Feb-21 17:05 34.066663 -118.502958 324 4032ft 119kts
22-Feb-21 17:06 34.093827 -118.525402 322 4060ft 117kts
22-Feb-21 17:07 34.120712 -118.547290 321 4087ft 115kts
22-Feb-21 17:08 34.146888 -118.569077 324 4091ft 115kts
22-Feb-21 17:09 34.172392 -118.591548 302 4045ft 112kts
22-Feb-21 17:10 34.168870 -118.627801 262 4010ft 108kts
22-Feb-21 17:11 34.168398 -118.663262 318 4043ft 103kts
22-Feb-21 17:12 34.197483 -118.672944 340 4045ft 110kts
22-Feb-21 17:13 34.201614 -118.643794 117 4086ft 128kts
22-Feb-21 17:14 34.199709 -118.601408 82 4086ft 126kts
22-Feb-21 17:15 34.199454 -118.558538 90 3986ft 124kts
22-Feb-21 17:16 34.199766 -118.517643 89 3600ft 107kts
22-Feb-21 17:17 34.198647 -118.483668 84 2936ft 100kts
22-Feb-21 17:18 34.199200 -118.454997 98 2260ft 83kts
22-Feb-21 17:19 34.198575 -118.425900 95 1736ft 85kts
22-Feb-21 17:20 34.198342 -118.397547 94 1286ft 76kts
22-Feb-21 17:21 34.198001 -118.375820 93 923ft 62kts
22-Feb-21 17:22 34.197568 -118.360393 142 715ft 18kts
22-Feb-21 17:23 34.196933 -118.360062 89 713ft 0kts
22-Feb-21 17:24 34.196932 -118.360047 95 713ft 0kts

Navigation Log

Ident Type
Flight plan parsing failed, navigation log unavailable